Alpine, Texas
Current Conditions -  °F | °C
As of 11:55 AM on Saturday 25 Oct 2014 (Local Time) from KE38 Reporting Station
Clear Clear  
Wind Chill: 77°   Ceiling: Unl
Heat Index: 78°   Visibility: 10mi
Dew Point: 47°   Wind: 8mph
Humidity: 35%   Direction: 280°W
Pressure: 30.35"   Gusts: NA
Location:  30.36°N, 103.66°W
Report Text: KE38 251655Z AUTO 28007KT 10SM CLR 25/09 A3035 RMK AO2 T02510085
Loading
Personal Weather Stations






























Interactive Weather Map New forecast layout! Learn more

10-Day Weather Forecast

Advertisements
Track Severe Weather on mobile